createdAt,value
2022-10-10T00:01:49.561Z,7.85
2022-10-10T00:04:18.771Z,7.65
2022-10-10T00:06:47.834Z,8.00
2022-10-10T00:09:17.121Z,7.85
2022-10-10T00:11:46.159Z,8.73
2022-10-10T00:14:15.609Z,8.18
2022-10-10T00:16:46.075Z,7.90
2022-10-10T00:19:15.633Z,7.07
2022-10-10T00:21:44.718Z,8.38
2022-10-10T00:24:13.932Z,7.65
2022-10-10T00:26:42.949Z,7.78
2022-10-10T00:29:12.170Z,8.07
2022-10-10T00:31:41.258Z,8.00
2022-10-10T00:34:12.975Z,7.70
2022-10-10T00:36:42.115Z,7.35
2022-10-10T00:39:11.423Z,7.45
2022-10-10T00:41:40.470Z,6.93
2022-10-10T00:44:11.844Z,6.55
2022-10-10T00:46:41.381Z,7.53
2022-10-10T00:49:16.377Z,7.05
2022-10-10T00:51:48.069Z,6.57
2022-10-10T00:54:19.472Z,5.97
2022-10-10T00:56:52.772Z,6.78
2022-10-10T00:59:23.065Z,6.78
2022-10-10T01:01:52.119Z,6.22
2022-10-10T01:04:35.095Z,7.32
2022-10-10T01:07:07.153Z,6.15
2022-10-10T01:09:38.789Z,5.70
2022-10-10T01:12:19.735Z,6.10
2022-10-10T01:14:55.101Z,6.07
2022-10-10T01:17:31.452Z,5.55
2022-10-10T01:20:38.037Z,5.82
2022-10-10T01:23:39.528Z,6.03
2022-10-10T01:26:35.834Z,6.20
2022-10-10T01:29:12.102Z,5.65
2022-10-10T01:31:45.117Z,5.65
2022-10-10T01:34:22.329Z,6.28
2022-10-10T01:36:59.704Z,5.38
2022-10-10T01:39:35.166Z,5.72
2022-10-10T01:42:10.762Z,5.75
2022-10-10T01:44:45.804Z,5.55
2022-10-10T01:47:15.435Z,5.70
2022-10-10T01:49:48.083Z,5.20
2022-10-10T01:52:26.252Z,5.88
2022-10-10T01:55:07.656Z,5.55
2022-10-10T01:57:47.795Z,6.05
2022-10-10T02:00:19.797Z,6.22
2022-10-10T02:02:55.142Z,5.60
2022-10-10T02:05:29.046Z,5.15
2022-10-10T02:08:04.650Z,5.32
2022-10-10T02:10:41.589Z,4.72
2022-10-10T02:13:14.211Z,5.47
2022-10-10T02:15:47.052Z,5.22
2022-10-10T02:18:21.077Z,4.72
2022-10-10T02:20:51.618Z,5.32
2022-10-10T02:23:22.965Z,6.25
2022-10-10T02:25:55.268Z,5.63
2022-10-10T02:28:31.338Z,6.13
2022-10-10T02:36:09.896Z,5.80
2022-10-10T02:38:40.572Z,6.03
2022-10-10T02:41:12.853Z,5.85
2022-10-10T02:43:42.443Z,6.93
2022-10-10T02:46:14.953Z,5.68
2022-10-10T02:48:44.859Z,6.20
2022-10-10T02:51:18.507Z,6.05
2022-10-10T02:53:47.570Z,4.93
2022-10-10T02:56:16.931Z,5.90
2022-10-10T02:58:46.044Z,5.85
2022-10-10T03:01:15.293Z,6.20
2022-10-10T03:03:44.420Z,5.90
2022-10-10T03:06:15.167Z,5.50
2022-10-10T03:08:44.107Z,6.07
2022-10-10T03:11:13.392Z,5.88
2022-10-10T03:13:42.566Z,4.93
2022-10-10T03:16:12.278Z,5.15
2022-10-10T03:18:41.419Z,5.32
2022-10-10T03:21:10.564Z,4.80
2022-10-10T03:23:41.255Z,5.00
2022-10-10T03:26:10.304Z,5.53
2022-10-10T03:28:39.832Z,4.97
2022-10-10T03:31:09.011Z,4.95
2022-10-10T03:33:38.215Z,5.30
2022-10-10T03:36:07.771Z,5.43
2022-10-10T03:38:36.981Z,5.38
2022-10-10T03:41:07.539Z,5.35
2022-10-10T03:43:36.715Z,5.00
2022-10-10T03:46:05.937Z,5.88
2022-10-10T03:48:35.310Z,5.53
2022-10-10T03:51:04.579Z,5.10
2022-10-10T03:53:33.917Z,5.43
2022-10-10T03:56:02.959Z,5.43
2022-10-10T03:58:33.642Z,6.05
2022-10-10T04:01:04.368Z,5.90
2022-10-10T04:03:34.085Z,6.10
2022-10-10T04:06:03.195Z,5.28
2022-10-10T04:08:32.670Z,6.07
2022-10-10T04:11:01.666Z,6.95
2022-10-10T04:13:32.334Z,6.45
2022-10-10T04:16:01.429Z,7.18
2022-10-10T04:18:31.080Z,6.88
2022-10-10T04:21:04.118Z,7.65
2022-10-10T04:23:33.642Z,7.07
2022-10-10T04:26:02.848Z,8.02
2022-10-10T04:28:33.719Z,7.05
2022-10-10T04:31:02.828Z,7.25
2022-10-10T04:33:32.199Z,7.55
2022-10-10T04:36:01.274Z,8.88
2022-10-10T04:38:30.573Z,8.05
2022-10-10T04:40:59.757Z,8.60
2022-10-10T04:43:29.481Z,8.77
2022-10-10T04:46:00.356Z,8.90
2022-10-10T04:48:29.629Z,9.80
2022-10-10T04:51:00.908Z,9.50
2022-10-10T04:53:30.182Z,9.85
2022-10-10T04:55:59.383Z,9.90
2022-10-10T04:58:28.859Z,9.45
2022-10-10T05:00:59.444Z,10.13
2022-10-10T05:03:28.868Z,9.07
2022-10-10T05:05:58.100Z,10.35
2022-10-10T05:08:27.588Z,10.65
2022-10-10T05:10:56.855Z,10.57
2022-10-10T05:13:26.269Z,10.10
2022-10-10T05:15:55.779Z,9.55
2022-10-10T05:18:26.406Z,9.73
2022-10-10T05:20:58.606Z,10.35
2022-10-10T05:23:30.518Z,10.43
2022-10-10T05:25:59.646Z,10.25
2022-10-10T05:28:28.873Z,9.70
2022-10-10T05:30:58.008Z,10.52
2022-10-10T05:33:28.898Z,11.63
2022-10-10T05:36:05.112Z,10.55
2022-10-10T05:38:35.051Z,11.55
2022-10-10T05:41:04.432Z,12.75
2022-10-10T05:43:33.717Z,11.75
2022-10-10T05:46:02.984Z,11.93
2022-10-10T05:48:33.737Z,12.88
2022-10-10T05:51:03.229Z,12.50
2022-10-10T05:53:32.467Z,12.55
2022-10-10T05:56:03.143Z,11.63
2022-10-10T05:58:32.381Z,12.77
2022-10-10T06:01:05.724Z,12.65
2022-10-10T06:03:37.152Z,10.73
2022-10-10T06:06:07.261Z,12.10
2022-10-10T06:08:36.976Z,12.02
2022-10-10T06:11:08.862Z,12.23
2022-10-10T06:13:39.135Z,14.02
2022-10-10T06:16:08.555Z,13.90
2022-10-10T06:18:39.286Z,13.20
2022-10-10T06:21:09.314Z,14.68
2022-10-10T06:23:38.762Z,13.27
2022-10-10T06:26:07.938Z,12.80
2022-10-10T06:28:37.360Z,13.82
2022-10-10T06:31:08.796Z,13.77
2022-10-10T06:33:41.065Z,13.43
2022-10-10T06:36:10.472Z,13.45
2022-10-10T06:38:40.727Z,14.18
2022-10-10T06:41:10.365Z,13.90
2022-10-10T06:43:41.275Z,14.88
2022-10-10T06:46:11.801Z,17.15
2022-10-10T06:48:43.191Z,15.60
2022-10-10T06:51:15.998Z,15.73
2022-10-10T06:53:46.286Z,16.45
2022-10-10T06:56:26.266Z,12.25
2022-10-10T06:58:56.862Z,15.15
2022-10-10T07:01:27.267Z,13.75
2022-10-10T07:03:58.154Z,11.50
2022-10-10T07:06:29.615Z,14.07
2022-10-10T07:09:01.848Z,11.82
2022-10-10T07:11:31.243Z,11.88
2022-10-10T07:14:00.775Z,10.95
2022-10-10T07:16:30.054Z,10.73
2022-10-10T07:19:00.669Z,11.88
2022-10-10T07:21:29.793Z,12.05
2022-10-10T07:23:59.086Z,11.68
2022-10-10T07:26:31.095Z,10.48
2022-10-10T07:29:00.353Z,9.88
2022-10-10T07:31:29.547Z,9.70
2022-10-10T07:34:00.167Z,9.75
2022-10-10T07:36:29.275Z,9.82
2022-10-10T07:38:58.608Z,10.10
2022-10-10T07:41:27.586Z,10.90
2022-10-10T07:43:57.673Z,11.43
2022-10-10T07:46:27.081Z,9.35
2022-10-10T07:48:57.483Z,10.45
2022-10-10T07:51:27.868Z,10.00
2022-10-10T07:53:57.275Z,8.90
2022-10-10T07:56:26.843Z,9.93
2022-10-10T07:58:56.134Z,10.45
2022-10-10T08:01:25.282Z,9.35
2022-10-10T08:03:56.311Z,9.70
2022-10-10T08:06:27.108Z,9.57
2022-10-10T08:08:56.362Z,9.10
2022-10-10T08:11:25.536Z,8.00
2022-10-10T08:13:54.731Z,10.68
2022-10-10T08:16:23.807Z,9.68
2022-10-10T08:18:53.408Z,9.27
2022-10-10T08:21:22.486Z,8.15
2022-10-10T08:23:53.215Z,9.50
2022-10-10T08:26:22.192Z,12.50
2022-10-10T08:28:51.531Z,11.57
2022-10-10T08:31:22.759Z,9.75
2022-10-10T08:33:52.948Z,10.02
2022-10-10T08:36:23.722Z,9.38
2022-10-10T08:39:01.016Z,9.10
2022-10-10T08:41:39.555Z,9.40
2022-10-10T08:44:17.793Z,8.75
2022-10-10T08:46:51.546Z,8.63
2022-10-10T08:49:26.431Z,7.78
2022-10-10T08:52:02.784Z,8.13
2022-10-10T08:54:35.892Z,7.82
2022-10-10T08:57:08.986Z,8.02
2022-10-10T08:59:42.176Z,7.72
2022-10-10T09:02:53.142Z,7.35
2022-10-10T09:05:35.901Z,7.45
2022-10-10T09:08:26.882Z,7.57
2022-10-10T09:11:03.496Z,7.72
2022-10-10T09:13:37.160Z,6.93
2022-10-10T09:16:14.577Z,6.00
2022-10-10T09:18:55.353Z,6.45
2022-10-10T09:21:28.931Z,6.32
2022-10-10T09:24:04.297Z,5.82
2022-10-10T09:26:39.861Z,6.50
2022-10-10T09:29:24.796Z,5.80
2022-10-10T09:31:58.507Z,5.68
2022-10-10T09:34:37.234Z,5.18
2022-10-10T09:37:16.474Z,6.07
2022-10-10T09:39:57.669Z,4.65
2022-10-10T09:42:36.562Z,4.82
2022-10-10T09:45:14.326Z,4.97
2022-10-10T09:47:43.757Z,4.97
2022-10-10T09:50:15.216Z,5.72
2022-10-10T09:52:45.458Z,5.00
2022-10-10T09:55:26.384Z,5.60
2022-10-10T09:58:04.033Z,3.63
2022-10-10T10:00:37.730Z,5.22
2022-10-10T10:03:13.743Z,4.53
2022-10-10T10:05:46.490Z,4.03
2022-10-10T10:08:27.896Z,4.45
2022-10-10T10:11:00.798Z,5.35
2022-10-10T10:13:34.768Z,4.32
2022-10-10T10:16:09.593Z,4.10
2022-10-10T10:18:43.507Z,3.85
2022-10-10T10:21:19.610Z,4.07
2022-10-10T10:23:58.208Z,3.85
2022-10-10T10:26:32.049Z,3.60
2022-10-10T10:29:02.587Z,4.10
2022-10-10T10:31:54.468Z,3.88
2022-10-10T10:34:53.296Z,3.80
2022-10-10T10:37:25.269Z,3.92
2022-10-10T10:40:10.421Z,3.47
2022-10-10T10:43:03.824Z,3.50
2022-10-10T10:45:46.239Z,3.30
2022-10-10T10:48:27.148Z,3.38
2022-10-10T10:51:03.753Z,3.25
2022-10-10T10:53:41.582Z,3.40
2022-10-10T10:56:21.036Z,2.70
2022-10-10T10:59:31.845Z,3.20
2022-10-10T11:02:01.102Z,2.92
2022-10-10T11:05:18.330Z,3.13
2022-10-10T11:08:02.357Z,2.85
2022-10-10T11:10:39.861Z,3.22
2022-10-10T11:13:19.245Z,3.05
2022-10-10T11:16:05.904Z,3.10
2022-10-10T11:18:47.154Z,2.70
2022-10-10T11:21:20.036Z,3.20
2022-10-10T11:23:56.249Z,3.15
2022-10-10T11:26:29.510Z,3.08
2022-10-10T11:29:04.186Z,4.55
2022-10-10T11:31:39.130Z,3.28
2022-10-10T11:34:14.404Z,3.05
2022-10-10T11:36:45.464Z,3.03
2022-10-10T11:39:19.117Z,2.90
2022-10-10T11:41:53.141Z,3.10
2022-10-10T11:44:29.380Z,3.20
2022-10-10T11:47:04.606Z,3.17
2022-10-10T11:49:41.701Z,3.20
2022-10-10T11:52:34.060Z,3.17
2022-10-10T11:55:11.553Z,2.85
2022-10-10T11:57:45.989Z,2.78
2022-10-10T12:00:18.005Z,3.03
2022-10-10T12:02:49.972Z,2.92
2022-10-10T12:05:26.087Z,2.70
2022-10-10T12:08:12.318Z,3.25
2022-10-10T12:10:50.874Z,3.00
2022-10-10T12:13:29.767Z,2.75
2022-10-10T12:16:04.027Z,2.70
2022-10-10T12:18:41.607Z,3.03
2022-10-10T12:21:14.936Z,3.72
2022-10-10T12:23:47.435Z,2.83
2022-10-10T12:26:18.482Z,2.97
2022-10-10T12:29:03.411Z,2.85
2022-10-10T12:31:37.711Z,3.05
2022-10-10T12:34:18.475Z,3.20
2022-10-10T12:37:22.385Z,3.33
2022-10-10T12:40:31.161Z,2.88
2022-10-10T12:43:21.412Z,2.67
2022-10-10T12:46:23.901Z,2.67
2022-10-10T12:49:21.208Z,2.72
2022-10-10T12:52:12.443Z,2.70
2022-10-10T12:54:45.875Z,2.97
2022-10-10T12:57:21.388Z,2.60
2022-10-10T12:59:50.691Z,2.70
2022-10-10T13:02:24.898Z,2.83
2022-10-10T13:04:58.410Z,3.05
2022-10-10T13:07:28.240Z,2.97
2022-10-10T13:10:11.571Z,3.47
2022-10-10T13:12:40.616Z,3.25
2022-10-10T13:15:21.063Z,2.70
2022-10-10T13:17:50.136Z,3.60
2022-10-10T13:20:31.797Z,3.70
2022-10-10T13:23:04.574Z,4.43
2022-10-10T13:25:38.993Z,3.80
2022-10-10T13:28:17.588Z,3.55
2022-10-10T13:30:47.860Z,3.67
2022-10-10T13:33:19.175Z,3.50
2022-10-10T13:35:50.630Z,3.60
2022-10-10T13:38:25.865Z,3.95
2022-10-10T13:40:56.891Z,3.40
2022-10-10T13:43:26.433Z,3.33
2022-10-10T13:46:00.509Z,3.53
2022-10-10T13:48:39.064Z,3.25
2022-10-10T13:51:10.979Z,3.17
2022-10-10T13:53:49.579Z,3.53
2022-10-10T13:56:28.598Z,3.20
2022-10-10T13:59:06.562Z,3.70
2022-10-10T14:01:39.110Z,3.70
2022-10-10T14:04:17.795Z,4.45
2022-10-10T14:06:56.344Z,4.57
2022-10-10T14:09:31.950Z,4.03
2022-10-10T14:12:04.487Z,3.80
2022-10-10T14:14:42.155Z,4.47
2022-10-10T14:17:12.704Z,4.47
2022-10-10T14:19:42.504Z,4.07
2022-10-10T14:22:11.522Z,4.10
2022-10-10T14:24:40.861Z,4.15
2022-10-10T14:27:17.484Z,4.35
2022-10-10T14:29:47.254Z,4.75
2022-10-10T14:32:16.932Z,4.57
2022-10-10T14:34:47.010Z,4.95
2022-10-10T14:37:20.527Z,4.85
2022-10-10T14:39:50.319Z,6.05
2022-10-10T14:42:22.036Z,4.60
2022-10-10T14:44:51.381Z,5.60
2022-10-10T14:47:22.453Z,5.35
2022-10-10T14:49:52.893Z,5.47
2022-10-10T14:52:21.872Z,5.00
2022-10-10T14:54:51.065Z,5.15
2022-10-10T14:57:22.479Z,5.40
2022-10-10T14:59:51.810Z,5.78
2022-10-10T15:02:22.839Z,5.68
2022-10-10T15:04:52.698Z,5.68
2022-10-10T15:07:21.869Z,5.80
2022-10-10T15:10:26.134Z,5.32
2022-10-10T15:12:44.777Z,5.70
2022-10-10T15:15:14.766Z,6.00
2022-10-10T15:17:44.073Z,6.75
2022-10-10T15:20:14.777Z,6.38
2022-10-10T15:22:46.068Z,6.20
2022-10-10T15:25:15.320Z,6.70
2022-10-10T15:27:45.703Z,9.48
2022-10-10T15:30:15.457Z,8.00
2022-10-10T15:32:44.601Z,13.57
2022-10-10T15:35:16.922Z,12.05
2022-10-10T15:37:47.178Z,7.32
2022-10-10T15:40:19.845Z,7.03
2022-10-10T15:42:52.082Z,8.25
2022-10-10T15:45:44.022Z,6.75
2022-10-10T15:48:10.790Z,7.53
2022-10-10T15:50:43.609Z,7.22
2022-10-10T15:53:13.433Z,9.45
2022-10-10T15:55:46.751Z,7.47
2022-10-10T15:58:17.806Z,6.70
2022-10-10T16:00:47.223Z,7.60
2022-10-10T16:03:18.321Z,8.18
2022-10-10T16:05:47.392Z,6.85
2022-10-10T16:08:16.497Z,7.57
2022-10-10T16:10:45.916Z,7.93
2022-10-10T16:13:16.345Z,7.65
2022-10-10T16:15:45.346Z,8.85
2022-10-10T16:18:14.613Z,9.98
2022-10-10T16:20:44.488Z,13.63
2022-10-10T16:23:13.706Z,15.40
2022-10-10T16:25:43.151Z,18.90
2022-10-10T16:28:12.832Z,36.08
2022-10-10T16:30:43.303Z,30.75
2022-10-10T16:33:13.673Z,20.52
2022-10-10T16:35:42.826Z,13.52
2022-10-10T16:38:12.075Z,14.20
2022-10-10T16:40:41.117Z,12.75
2022-10-10T16:43:11.115Z,9.40
2022-10-10T16:45:45.031Z,11.70
2022-10-10T16:48:14.628Z,88.13
2022-10-10T16:50:44.478Z,53.65
2022-10-10T16:53:13.738Z,41.63
2022-10-10T16:55:43.556Z,33.08
2022-10-10T16:58:12.956Z,35.33
2022-10-10T17:00:45.631Z,9.93
2022-10-10T17:03:15.217Z,10.68
2022-10-10T17:05:44.613Z,13.05
2022-10-10T17:08:14.095Z,12.00
2022-10-10T17:10:45.299Z,10.95
2022-10-10T17:13:14.597Z,11.73
2022-10-10T17:15:45.344Z,23.80
2022-10-10T17:18:17.357Z,19.83
2022-10-10T17:20:47.119Z,17.88
2022-10-10T17:23:17.404Z,12.80
2022-10-10T17:25:47.482Z,11.18
2022-10-10T17:28:17.603Z,11.50
2022-10-10T17:30:50.310Z,9.80
2022-10-10T17:33:21.680Z,8.45
2022-10-10T17:35:51.840Z,8.25
2022-10-10T17:38:39.173Z,8.27
2022-10-10T17:41:10.696Z,10.48
2022-10-10T17:43:40.187Z,8.70
2022-10-10T17:46:33.357Z,13.27
2022-10-10T17:49:02.351Z,13.77
2022-10-10T17:51:31.483Z,10.38
2022-10-10T17:54:01.421Z,13.38
2022-10-10T17:56:31.726Z,9.13
2022-10-10T17:59:02.048Z,9.75
2022-10-10T18:01:33.060Z,11.00
2022-10-10T18:04:02.609Z,10.18
2022-10-10T18:06:33.028Z,10.55
2022-10-10T18:09:02.731Z,10.55
2022-10-10T18:11:33.129Z,11.50
2022-10-10T18:14:02.266Z,14.77
2022-10-10T18:16:34.897Z,9.68
2022-10-10T18:19:05.624Z,10.43
2022-10-10T18:21:35.575Z,9.98
2022-10-10T18:24:04.908Z,11.57
2022-10-10T18:26:35.103Z,9.15
2022-10-10T18:29:05.034Z,10.32
2022-10-10T18:31:38.306Z,8.52
2022-10-10T18:34:08.871Z,8.18
2022-10-10T18:36:40.396Z,9.43
2022-10-10T18:39:13.326Z,9.75
2022-10-10T18:41:42.787Z,11.52
2022-10-10T18:44:14.710Z,10.52
2022-10-10T18:46:46.367Z,9.63
2022-10-10T18:49:15.924Z,8.95
2022-10-10T18:51:45.684Z,9.98
2022-10-10T18:54:17.569Z,9.18
2022-10-10T18:56:48.591Z,19.67
2022-10-10T18:59:20.033Z,19.48
2022-10-10T19:01:52.528Z,10.25
2022-10-10T19:04:23.489Z,10.13
2022-10-10T19:06:57.313Z,6.63
2022-10-10T19:09:27.123Z,7.40
2022-10-10T19:11:56.627Z,6.57
2022-10-10T19:14:25.871Z,6.82
2022-10-10T19:16:57.348Z,6.40
2022-10-10T19:19:27.264Z,6.40
2022-10-10T19:21:56.620Z,7.00
2022-10-10T19:24:25.835Z,6.13
2022-10-10T19:26:57.473Z,5.50
2022-10-10T19:29:28.234Z,6.70
2022-10-10T19:31:58.931Z,6.57
2022-10-10T19:34:28.213Z,6.18
2022-10-10T19:36:58.791Z,6.30
2022-10-10T19:39:27.838Z,9.00
2022-10-10T19:41:57.113Z,8.20
2022-10-10T19:44:26.290Z,6.30
2022-10-10T19:46:59.558Z,6.85
2022-10-10T19:49:28.759Z,8.27
2022-10-10T19:51:57.838Z,11.40
2022-10-10T19:54:27.058Z,9.75
2022-10-10T19:56:56.370Z,12.02
2022-10-10T19:59:25.403Z,16.52
2022-10-10T20:01:54.598Z,32.70
2022-10-10T20:04:25.291Z,18.25
2022-10-10T20:06:54.472Z,16.25
2022-10-10T20:09:25.480Z,23.98
2022-10-10T20:11:55.139Z,7.35
2022-10-10T20:14:24.213Z,9.02
2022-10-10T20:16:53.923Z,12.20
2022-10-10T20:19:24.972Z,6.95
2022-10-10T20:21:54.114Z,7.82
2022-10-10T20:24:23.464Z,9.10
2022-10-10T20:26:54.491Z,6.00
2022-10-10T20:29:23.739Z,7.40
2022-10-10T20:31:53.928Z,8.45
2022-10-10T20:34:24.399Z,6.43
2022-10-10T20:36:53.859Z,7.15
2022-10-10T20:39:22.858Z,5.53
2022-10-10T20:41:52.118Z,7.00
2022-10-10T20:44:21.313Z,15.25
2022-10-10T20:46:50.324Z,16.80
2022-10-10T20:49:21.219Z,16.45
2022-10-10T20:51:52.115Z,7.10
2022-10-10T20:54:23.333Z,6.63
2022-10-10T20:56:52.973Z,6.07
2022-10-10T20:59:24.526Z,5.47
2022-10-10T21:01:53.941Z,6.28
2022-10-10T21:04:23.019Z,5.90
2022-10-10T21:06:53.456Z,6.38
2022-10-10T21:09:22.696Z,6.85
2022-10-10T21:11:52.041Z,14.32
2022-10-10T21:14:21.256Z,15.68
2022-10-10T21:16:51.375Z,13.15
2022-10-10T21:19:20.468Z,11.82
2022-10-10T21:21:49.663Z,12.63
2022-10-10T21:24:20.198Z,18.98
2022-10-10T21:26:50.768Z,22.45
2022-10-10T21:29:19.851Z,22.05
2022-10-10T21:31:49.085Z,17.08
2022-10-10T21:34:19.064Z,17.50
2022-10-10T21:36:48.844Z,40.95
2022-10-10T21:39:19.250Z,22.17
2022-10-10T21:41:48.539Z,37.15
2022-10-10T21:44:17.600Z,49.33
2022-10-10T21:46:46.667Z,12.75
2022-10-10T21:49:16.049Z,13.52
2022-10-10T21:51:46.535Z,34.10
2022-10-10T21:54:16.140Z,9.00
2022-10-10T21:56:46.799Z,6.60
2022-10-10T21:59:15.846Z,10.32
2022-10-10T22:01:45.003Z,7.32
2022-10-10T22:04:14.200Z,5.95
2022-10-10T22:06:44.701Z,6.53
2022-10-10T22:09:13.780Z,6.85
2022-10-10T22:11:43.082Z,5.20
2022-10-10T22:14:13.471Z,4.88
2022-10-10T22:16:42.536Z,6.38
2022-10-10T22:19:11.901Z,5.28
2022-10-10T22:21:41.035Z,5.32
2022-10-10T22:24:10.313Z,5.20
2022-10-10T22:26:39.708Z,5.38
2022-10-10T22:29:08.796Z,4.82
2022-10-10T22:31:39.236Z,4.57
2022-10-10T22:34:08.536Z,4.85
2022-10-10T22:36:37.567Z,5.70
2022-10-10T22:39:09.006Z,6.45
2022-10-10T22:41:38.159Z,4.85
2022-10-10T22:44:07.603Z,5.57
2022-10-10T22:46:37.962Z,4.75
2022-10-10T22:49:07.313Z,5.03
2022-10-10T22:51:36.271Z,6.07
2022-10-10T22:54:05.413Z,5.07
2022-10-10T22:56:34.764Z,4.93
2022-10-10T22:59:03.778Z,4.97
2022-10-10T23:01:32.950Z,5.03
2022-10-10T23:04:10.299Z,5.32
2022-10-10T23:06:39.490Z,5.13
2022-10-10T23:09:09.519Z,5.35
2022-10-10T23:11:38.496Z,5.22
2022-10-10T23:14:07.815Z,5.53
2022-10-10T23:16:40.600Z,5.88
2022-10-10T23:19:11.382Z,5.90
2022-10-10T23:21:40.782Z,6.05
2022-10-10T23:24:10.231Z,6.18
2022-10-10T23:26:39.272Z,5.18
2022-10-10T23:29:09.377Z,6.15
2022-10-10T23:31:38.341Z,5.65
2022-10-10T23:34:07.557Z,5.85
2022-10-10T23:36:38.279Z,6.53
2022-10-10T23:39:09.898Z,6.10
2022-10-10T23:41:39.547Z,5.75
2022-10-10T23:44:08.669Z,6.28
2022-10-10T23:46:37.807Z,4.95
2022-10-10T23:49:07.231Z,5.93
2022-10-10T23:51:37.688Z,5.75
2022-10-10T23:54:06.799Z,6.25
2022-10-10T23:56:36.069Z,5.28
2022-10-10T23:59:05.100Z,5.45
